Time;durP1;ratioP1;P1;durP2;ratioP2;P2;SDS_P1;SDS_P2;PMS_P1;PMS_P2;Temp;Humidity;BMP_temperature;BMP_pressure;BME280_temperature;BME280_humidity;BME280_pressure;Samples;Min_cycle;Max_cycle;Signal;HPM_P1;HPM_P2
2023/08/20 00:08:29;;;;;;;10.4;8.4;;;;;;;19.26;87.74;;;;;
2023/08/20 00:18:29;;;;;;;10.4;8.4;;;;;;;19.25;87.41;;;;;
2023/08/20 00:29:29;;;;;;;11.8;8.9;;;;;;;19.13;87.73;;;;;
2023/08/20 00:40:29;;;;;;;11.8;8.9;;;;;;;19.05;87.49;;;;;
2023/08/20 00:50:29;;;;;;;11.8;8.9;;;;;;;18.95;87.78;;;;;
2023/08/20 01:00:29;;;;;;;11.3;8.8;;;;;;;18.97;87.56;;;;;
2023/08/20 01:11:29;;;;;;;11.3;8.8;;;;;;;18.87;87.21;;;;;
2023/08/20 01:21:29;;;;;;;11.3;8.8;;;;;;;18.8;87.52;;;;;
2023/08/20 01:31:30;;;;;;;10.8;8.2;;;;;;;18.74;88.14;;;;;
2023/08/20 01:41:29;;;;;;;10.8;8.2;;;;;;;18.75;88.42;;;;;
2023/08/20 01:51:29;;;;;;;10.8;8.2;;;;;;;18.75;88.6;;;;;
2023/08/20 02:01:30;;;;;;;9.7;8.5;;;;;;;18.71;88.19;;;;;
2023/08/20 02:12:29;;;;;;;9.7;8.5;;;;;;;18.71;88.5;;;;;
2023/08/20 02:22:29;;;;;;;9.7;8.5;;;;;;;18.73;88.73;;;;;
2023/08/20 02:32:31;;;;;;;10.1;8.5;;;;;;;18.84;89.02;;;;;
2023/08/20 02:43:29;;;;;;;10.1;8.5;;;;;;;18.85;88.78;;;;;
2023/08/20 02:53:29;;;;;;;10.1;8.5;;;;;;;18.87;88.66;;;;;
2023/08/20 03:03:30;;;;;;;12.4;9.3;;;;;;;18.85;88.43;;;;;
2023/08/20 03:14:29;;;;;;;12.4;9.3;;;;;;;18.71;88.45;;;;;
2023/08/20 03:24:29;;;;;;;12.4;9.3;;;;;;;18.62;88.18;;;;;
2023/08/20 03:34:31;;;;;;;11.4;8.2;;;;;;;18.53;88.32;;;;;
2023/08/20 03:44:29;;;;;;;11.4;8.2;;;;;;;18.5;88.21;;;;;
2023/08/20 03:54:30;;;;;;;11.4;8.2;;;;;;;18.44;88.6;;;;;
2023/08/20 04:04:31;;;;;;;11.9;8.7;;;;;;;18.47;88.34;;;;;
2023/08/20 04:15:30;;;;;;;11.9;8.7;;;;;;;18.73;88.51;;;;;
2023/08/20 04:26:30;;;;;;;11.9;8.7;;;;;;;18.99;88.6;;;;;
2023/08/20 04:37:30;;;;;;;11.7;8.3;;;;;;;19.34;88.75;;;;;
2023/08/20 04:47:30;;;;;;;11.7;8.3;;;;;;;19.77;88.56;;;;;
2023/08/20 04:57:30;;;;;;;11.7;8.3;;;;;;;20.18;87.63;;;;;
2023/08/20 05:07:31;;;;;;;11.3;8.9;;;;;;;20.46;86.49;;;;;
2023/08/20 05:18:31;;;;;;;11.3;8.9;;;;;;;20.84;85.97;;;;;
2023/08/20 05:28:31;;;;;;;11.3;7.7;;;;;;;21.47;85.47;;;;;
2023/08/20 05:38:31;;;;;;;11.3;7.7;;;;;;;21.71;81.77;;;;;
2023/08/20 05:48:31;;;;;;;11.3;7.7;;;;;;;21.91;80.86;;;;;
2023/08/20 05:59:31;;;;;;;13.3;9;;;;;;;22.24;80.64;;;;;
2023/08/20 06:09:31;;;;;;;13.3;9;;;;;;;22.7;80.14;;;;;
2023/08/20 06:19:31;;;;;;;13.3;9;;;;;;;23.08;78.72;;;;;
2023/08/20 06:30:31;;;;;;;11.2;9;;;;;;;23.48;77.61;;;;;
2023/08/20 06:40:31;;;;;;;11.2;9;;;;;;;23.78;78.08;;;;;
2023/08/20 06:50:31;;;;;;;11.2;9;;;;;;;24.25;77.25;;;;;
2023/08/20 07:00:31;;;;;;;12.9;9;;;;;;;24.68;75.57;;;;;
2023/08/20 07:11:31;;;;;;;12.9;9;;;;;;;24.93;75.65;;;;;
2023/08/20 07:21:31;;;;;;;12.9;9;;;;;;;25.46;74.03;;;;;
2023/08/20 07:32:31;;;;;;;11;9.1;;;;;;;25.83;73.22;;;;;
2023/08/20 07:42:31;;;;;;;11;9.1;;;;;;;26.17;72.94;;;;;
2023/08/20 07:53:31;;;;;;;11;9.1;;;;;;;26.56;70.12;;;;;
2023/08/20 08:04:31;;;;;;;13.5;9.6;;;;;;;26.66;69.54;;;;;
2023/08/20 08:14:31;;;;;;;13.5;9.6;;;;;;;27.09;67.8;;;;;
2023/08/20 08:25:31;;;;;;;13.5;9.6;;;;;;;27.43;67.73;;;;;
2023/08/20 08:36:31;;;;;;;11.9;10.3;;;;;;;27.67;67.4;;;;;
2023/08/20 08:46:31;;;;;;;11.9;10.3;;;;;;;27.65;64.53;;;;;
2023/08/20 08:57:31;;;;;;;11.9;10.3;;;;;;;27.76;66.19;;;;;
2023/08/20 09:07:31;;;;;;;11;8.7;;;;;;;28.23;64.2;;;;;
2023/08/20 09:17:31;;;;;;;11;8.7;;;;;;;28.47;62.08;;;;;
2023/08/20 09:28:31;;;;;;;11;8.7;;;;;;;28.83;63.45;;;;;
2023/08/20 09:38:31;;;;;;;11.4;8.7;;;;;;;29.05;60.47;;;;;
2023/08/20 09:49:33;;;;;;;11.4;8.7;;;;;;;29.31;59.77;;;;;
2023/08/20 09:59:31;;;;;;;11.2;8.5;;;;;;;29.78;59.28;;;;;
2023/08/20 10:10:31;;;;;;;11.2;8.5;;;;;;;29.83;62.67;;;;;
2023/08/20 10:20:31;;;;;;;11.2;8.5;;;;;;;30.19;59.63;;;;;
2023/08/20 10:30:31;;;;;;;12.2;8.4;;;;;;;30.26;56.49;;;;;
2023/08/20 10:41:33;;;;;;;12.2;8.4;;;;;;;30.6;56.11;;;;;
2023/08/20 10:52:31;;;;;;;12.2;8.4;;;;;;;30.32;54.18;;;;;
2023/08/20 11:03:33;;;;;;;10.1;7.4;;;;;;;30.68;55.16;;;;;
2023/08/20 11:13:31;;;;;;;10.1;7.4;;;;;;;30.7;52.31;;;;;
2023/08/20 11:23:31;;;;;;;10.1;7.4;;;;;;;30.85;51.45;;;;;
2023/08/20 11:34:31;;;;;;;8.8;6;;;;;;;31.37;53.19;;;;;
2023/08/20 11:45:32;;;;;;;8.8;6;;;;;;;31.73;51.12;;;;;
2023/08/20 11:56:31;;;;;;;8.8;6;;;;;;;32.19;47.12;;;;;
2023/08/20 12:06:31;;;;;;;9.6;6.9;;;;;;;32.72;46.41;;;;;
2023/08/20 12:16:31;;;;;;;9.6;6.9;;;;;;;32.4;46.8;;;;;
2023/08/20 12:26:31;;;;;;;9.6;6.9;;;;;;;31.95;49.54;;;;;
2023/08/20 12:37:31;;;;;;;12.3;8.9;;;;;;;31.95;48.74;;;;;
2023/08/20 12:47:32;;;;;;;12.3;8.9;;;;;;;31.97;50.14;;;;;
2023/08/20 12:58:31;;;;;;;12.3;8.9;;;;;;;32.42;50.13;;;;;
2023/08/20 13:08:31;;;;;;;12.6;9.7;;;;;;;32.43;49.01;;;;;
2023/08/20 13:19:31;;;;;;;12.6;9.7;;;;;;;32.42;45.91;;;;;
2023/08/20 13:30:33;;;;;;;11;8.8;;;;;;;32.91;46.09;;;;;
2023/08/20 13:41:31;;;;;;;11;8.8;;;;;;;32.96;45.49;;;;;
2023/08/20 13:52:31;;;;;;;11;8.8;;;;;;;33.05;44.76;;;;;
2023/08/20 14:02:32;;;;;;;25.5;20.2;;;;;;;33.38;44.1;;;;;
2023/08/20 14:13:32;;;;;;;25.5;20.2;;;;;;;33.56;44.97;;;;;
2023/08/20 14:23:31;;;;;;;25.5;20.2;;;;;;;33.76;45.07;;;;;
2023/08/20 14:34:31;;;;;;;17.2;14.9;;;;;;;33.67;43.84;;;;;
2023/08/20 14:44:31;;;;;;;17.2;14.9;;;;;;;33.83;43.72;;;;;
2023/08/20 14:55:31;;;;;;;17.2;14.9;;;;;;;33.71;43.2;;;;;
2023/08/20 15:05:31;;;;;;;13.7;11.5;;;;;;;33.69;43.43;;;;;
2023/08/20 15:15:31;;;;;;;13.7;11.5;;;;;;;33.54;43.65;;;;;
2023/08/20 15:26:31;;;;;;;13.7;11.5;;;;;;;35.45;39.88;;;;;
2023/08/20 15:36:31;;;;;;;10.8;9.1;;;;;;;35.85;38.76;;;;;
2023/08/20 15:46:31;;;;;;;10.8;9.1;;;;;;;34.36;40.94;;;;;
2023/08/20 15:56:31;;;;;;;10.8;9.1;;;;;;;35.4;40.52;;;;;
2023/08/20 16:07:31;;;;;;;10.1;7.6;;;;;;;35.46;40.46;;;;;
2023/08/20 16:17:31;;;;;;;10.1;7.6;;;;;;;35.78;40.04;;;;;
2023/08/20 16:28:31;;;;;;;10.1;7.6;;;;;;;33.95;43.24;;;;;
2023/08/20 16:39:31;;;;;;;11.9;6.8;;;;;;;32.45;45.51;;;;;
2023/08/20 16:49:31;;;;;;;11.9;6.8;;;;;;;31.53;48.95;;;;;
2023/08/20 17:00:31;;;;;;;11.6;7.2;;;;;;;30.77;49.93;;;;;
2023/08/20 17:11:31;;;;;;;11.6;7.2;;;;;;;29.9;54.31;;;;;
2023/08/20 17:22:31;;;;;;;11.6;7.2;;;;;;;29.01;58.17;;;;;
2023/08/20 17:32:32;;;;;;;10;7.7;;;;;;;28.24;58.6;;;;;
2023/08/20 17:43:31;;;;;;;10;7.7;;;;;;;27.36;60.41;;;;;
2023/08/20 17:53:31;;;;;;;10;7.7;;;;;;;26.62;64.7;;;;;
2023/08/20 18:03:31;;;;;;;12;9.4;;;;;;;25.96;67.42;;;;;
2023/08/20 18:13:31;;;;;;;12;9.4;;;;;;;25.38;69.51;;;;;
2023/08/20 18:24:31;;;;;;;12;9.4;;;;;;;24.87;72.23;;;;;
2023/08/20 18:34:31;;;;;;;13.1;10.8;;;;;;;24.4;72.19;;;;;
2023/08/20 18:44:32;;;;;;;13.1;10.8;;;;;;;24.15;72.23;;;;;
2023/08/20 18:55:31;;;;;;;13.1;10.8;;;;;;;23.77;75.36;;;;;
2023/08/20 19:05:31;;;;;;;13.1;11.2;;;;;;;23.58;75.21;;;;;
2023/08/20 19:15:31;;;;;;;13.1;11.2;;;;;;;23.35;76.38;;;;;
2023/08/20 19:26:31;;;;;;;13.1;11.2;;;;;;;23.08;76.36;;;;;
2023/08/20 19:36:31;;;;;;;17.6;13;;;;;;;22.91;77.15;;;;;
2023/08/20 19:46:31;;;;;;;17.6;13;;;;;;;22.78;76.89;;;;;
2023/08/20 19:57:31;;;;;;;17.6;13;;;;;;;22.64;77.04;;;;;
2023/08/20 20:08:32;;;;;;;14.6;11;;;;;;;22.44;77.42;;;;;
2023/08/20 20:19:31;;;;;;;14.6;11;;;;;;;22.3;77.83;;;;;
2023/08/20 20:29:31;;;;;;;14.6;11;;;;;;;22.18;78.32;;;;;
2023/08/20 20:39:31;;;;;;;14.8;10.8;;;;;;;22.03;78.7;;;;;
2023/08/20 20:49:32;;;;;;;14.8;10.8;;;;;;;21.86;79.34;;;;;
2023/08/20 21:00:32;;;;;;;12.1;9.8;;;;;;;21.76;79.39;;;;;
2023/08/20 21:10:32;;;;;;;12.1;9.8;;;;;;;21.63;80.26;;;;;
2023/08/20 21:21:32;;;;;;;12.1;9.8;;;;;;;21.5;80.16;;;;;
2023/08/20 21:31:32;;;;;;;14.3;10.3;;;;;;;21.33;80.6;;;;;
2023/08/20 21:42:32;;;;;;;14.3;10.3;;;;;;;21.18;80.99;;;;;
2023/08/20 21:53:32;;;;;;;14.3;10.3;;;;;;;20.99;81.8;;;;;
2023/08/20 22:04:32;;;;;;;13.6;11.2;;;;;;;20.88;81.94;;;;;
2023/08/20 22:14:32;;;;;;;13.6;11.2;;;;;;;20.81;82.49;;;;;
2023/08/20 22:25:32;;;;;;;13.6;11.2;;;;;;;20.71;82.69;;;;;
2023/08/20 22:35:32;;;;;;;12.6;11.3;;;;;;;20.76;83.56;;;;;
2023/08/20 22:45:32;;;;;;;12.6;11.3;;;;;;;20.87;83.36;;;;;
2023/08/20 22:56:32;;;;;;;12.6;11.3;;;;;;;20.85;83.21;;;;;
2023/08/20 23:07:32;;;;;;;13.4;11;;;;;;;20.7;83.43;;;;;
2023/08/20 23:18:32;;;;;;;13.4;11;;;;;;;20.6;82.93;;;;;
2023/08/20 23:28:32;;;;;;;13.4;11;;;;;;;20.45;84.22;;;;;
2023/08/20 23:38:39;;;;;;;13.8;11.1;;;;;;;20.43;83.91;;;;;
2023/08/20 23:49:32;;;;;;;13.8;11.1;;;;;;;20.28;83.67;;;;;
2023/08/20 23:59:32;;;;;;;13.8;11.1;;;;;;;20.18;84.03;;;;;
